Latest Conditions
At L.F.Wade Int. Airport
Recorded at 5:55 am
Mostly Cloudy
Temp.: 
27°C/80°F
Humidity: 
75%
Wind: 
SW 17KT
or 20mph
UV Index: 
0
Island Observations
 
Observations
Thursday, September 20, 2018

Observations are in local time and taken at least once an hour, or upon the start and end of specified events such as showers and thunderstorms.

Time Sky / Weather Wind Speed/Gusts Temp. R.H. Pressure
     knots (mph)  °C (°F)  %  mb / "Hg
 05:55 Mostly Cloudy  SW 17/0 (20/0) 27(80) 75 1012 / 29.88
 04:55 Mostly Cloudy  SW 15/0 (17/0) 27(80) 75 1012 / 29.87
 03:55 Mostly Cloudy  SW 15/0 (17/0) 26(80) 75 1012 / 29.88
 02:55 Mostly Cloudy  SW 12/0 (14/0) 26(79) 82 1012 / 29.89
 01:55 Mostly Cloudy Showers WSW 16/0 (18/0) 26(80) 77 1013 / 29.90
 00:55 Mostly Cloudy  SW 13/0 (15/0) 27(80) 76 1014 / 29.93
 23:55 Mostly Cloudy Showers SW 14/0 (16/0) 26(80) 80 1014 / 29.94
 22:55 Mostly Cloudy  SW 13/0 (15/0) 26(79) 81 1014 / 29.94
 21:55 Mostly Cloudy  SW 12/0 (14/0) 26(80) 81 1014 / 29.94
 20:55 Mostly Cloudy  SW 10/0 (12/0) 26(80) 77 1014 / 29.93
 19:55 Mostly Cloudy Showers SW 10/0 (12/0) 26(79) 78 1014 / 29.94
 19:30 Mostly Cloudy Showers WSW 11/0 (13/0) 26(79) 81 1014 / 29.94
 19:19 Mostly Cloudy Showers WSW 10/0 (12/0) 26(79) 82 1014 / 29.93
 18:55 Mostly Cloudy Showers WSW 11/0 (13/0) 26(79) 78 1014 / 29.93
 18:15 Mostly Cloudy Showers W 10/0 (12/0) 26(80) 74 1014 / 29.93
 17:55 Mostly Cloudy Showers W 11/0 (13/0) 26(79) 76 1013 / 29.92
 16:55 Mostly Cloudy  WSW 9/0 (10/0) 27(80) 71 1013 / 29.92
 15:55 Mostly Cloudy  W 11/0 (13/0) 27(81) 70 1014 / 29.93
 14:55 Mostly Cloudy  W 13/0 (15/0) 27(80) 76 1014 / 29.94
 13:55 Mostly Cloudy  WSW 13/0 (15/0) 27(80) 75 1015 / 29.96
 12:55 Mostly Cloudy  WSW 14/0 (16/0) 27(81) 72 1015 / 29.96
 11:55 Mostly Cloudy  WSW 15/0 (17/0) 27(81) 71 1015 / 29.96
 10:55 Mostly Cloudy Showers WSW 11/0 (13/0) 26(79) 79 1015 / 29.96
 10:45 Mostly Cloudy Showers W 11/0 (13/0) 26(79) 80 1014 / 29.95
 10:16 Mostly Cloudy Showers W 10/0 (12/0) 26(79) 79 1014 / 29.95
 09:55 Mostly Cloudy Showers W 14/0 (16/0) 25(77) 73 1014 / 29.95
 08:55 Overcast Showers WSW 14/0 (16/0) 26(79) 80 1014 / 29.94
 08:08 Mostly Cloudy Showers WSW 13/0 (15/0) 25(77) 80 1013 / 29.92
 07:55 Mostly Cloudy Showers SW 10/0 (12/0) 25(77) 86 1013 / 29.92
 07:47 Mostly Cloudy Showers WSW 10/0 (12/0) 24(76) 86 1013 / 29.92
 07:37 Mostly Cloudy Showers W 7/0 (8/0) 24(76) 86 1014 / 29.93
 06:55 Mostly Cloudy Showers NW 13/0 (15/0) 23(74) 86 1013 / 29.91
 06:42 Mostly Cloudy Showers NW 14/0 (16/0) 24(74) 84 1013 / 29.91
 06:02 Overcast Thunderstorm WNW 17/0 (20/0) 22(72) 90 1012 / 29.89
 05:55 Overcast Thunderstorm W 27/0 (31/0) 21(69) 99 1012 / 29.89
 05:44 Overcast Thunderstorm W 23/0 (26/0) 21(69) 98 1012 / 29.89
 05:31 Overcast Showers W 26/0 (30/0) 21(69) 98 1012 / 29.89
 05:16 Overcast Showers W 24/0 (28/0) 22(71) 98 1012 / 29.88
 05:06 Overcast Showers W 21/0 (24/0) 23(73) 97 1012 / 29.88
 04:55 Overcast Showers W 10/0 (12/0) 24(74) 98 1012 / 29.87
 04:41 Mostly Cloudy Showers WNW 15/0 (17/0) 24(76) 94 1011 / 29.86
 04:31 Mostly Cloudy Showers WNW 11/0 (13/0) 25(77) 90 1011 / 29.86
 04:24 Mostly Cloudy Showers WNW 9/0 (10/0) 26(79) 85 1011 / 29.86
 04:21 Mostly Cloudy Showers WNW 10/0 (12/0) 26(79) 85 1011 / 29.86
 03:55 Mostly Cloudy Showers WNW 10/0 (12/0) 26(79) 83 1011 / 29.86
 02:55 Mostly Cloudy Showers NW 5/0 (6/0) 26(79) 81 1012 / 29.87
 01:55 Mostly Cloudy Showers NNE 5/0 (6/0) 25(77) 90 1012 / 29.88
 01:47 Mostly Cloudy Showers ENE 4/0 (5/0) 25(77) 89 1012 / 29.88
 01:41 Mostly Cloudy Showers NE 5/0 (6/0) 25(78) 89 1012 / 29.88
 01:39 Mostly Cloudy Showers NW 6/0 (7/0) 26(78) 88 1012 / 29.88
 01:19 Mostly Cloudy Showers NW 5/0 (6/0) 26(78) 84 1012 / 29.88
 00:55 Mostly Cloudy Showers NW 7/0 (8/0) 25(78) 89 1012 / 29.88
 23:55 Partly Cloudy Showers N 1/0 (1/0) 25(78) 89 1012 / 29.89
 22:55 Mostly Cloudy Showers N 2/0 (2/0) 25(78) 89 1012 / 29.89
 21:55 Mostly Cloudy  N 1/0 (1/0) 25(78) 88 1013 / 29.90
 20:55 Mostly Cloudy Showers NNW 3/0 (3/0) 25(77) 88 1013 / 29.91
 20:41 Mostly Cloudy Showers N 3/0 (3/0) 25(77) 90 1013 / 29.91
 19:55 Mostly Cloudy Showers N 11/0 (13/0) 26(78) 87 1013 / 29.90
 18:55 Mostly Cloudy Showers N 10/0 (12/0) 26(79) 79 1013 / 29.90
 18:21 Mostly Cloudy Showers N 10/0 (12/0) 26(79) 79 1013 / 29.90
 17:55 Mostly Cloudy Showers NNW 9/0 (10/0) 26(78) 87 1013 / 29.90
 17:33 Mostly Cloudy Showers N 8/0 (9/0) 26(78) 87 1013 / 29.90
 16:55 Mostly Cloudy Showers N 10/0 (12/0) 24(76) 90 1013 / 29.91
 15:55 Overcast Showers NE 14/0 (16/0) 23(74) 94 1014 / 29.93
 15:47 Overcast Showers ENE 15/0 (17/0) 24(74) 95 1014 / 29.93
 15:42 Overcast Showers ENE 13/0 (15/0) 24(76) 93 1014 / 29.93
 15:39 Overcast Showers NE 11/21 (13/24) 24(76) 90 1014 / 29.94
 15:35 Overcast Showers NNE 9/0 (10/0) 26(78) 89 1014 / 29.93
 15:25 Overcast Showers N 7/0 (8/0) 26(79) 84 1014 / 29.93
 14:55 Mostly Cloudy Showers N 8/0 (9/0) 27(80) 77 1014 / 29.94
 13:55 Mostly Cloudy Showers NNE 6/0 (7/0) 26(79) 73 1015 / 29.96
 13:12 Mostly Cloudy Showers NE 4/0 (5/0) 26(78) 85 1015 / 29.97
 12:55 Overcast Showers E 7/0 (8/0) 23(74) 89 1016 / 30.00
 12:35 Overcast Showers ENE 12/0 (14/0) 24(74) 89 1016 / 30.00
 12:23 Overcast Showers E 16/0 (18/0) 24(74) 86 1016 / 30.00
 12:09 Overcast Showers NE 10/0 (12/0) 27(81) 79 1016 / 30.00
 11:55 Mostly Cloudy Showers E 5/0 (6/0) 27(80) 80 1016 / 30.00
 11:46 Mostly Cloudy Showers E 6/0 (7/0) 26(79) 86 1016 / 30.00
 11:27 Mostly Cloudy Showers NE 9/0 (10/0) 27(81) 78 1016 / 30.00
 10:55 Mostly Cloudy Showers NE 8/0 (9/0) 27(81) 81 1016 / 30.01
 10:40 Mostly Cloudy Showers ENE 8/0 (9/0) 26(78) 82 1016 / 30.01
 10:35 Mostly Cloudy Showers ENE 7/0 (8/0) 28(82) 75 1016 / 30.01
 09:55 Mostly Cloudy Showers ENE 10/0 (12/0) 27(81) 73 1016 / 30.00
 09:08 Mostly Cloudy Showers ESE 7/0 (8/0) 27(80) 80 1016 / 30.00
 08:55 Mostly Cloudy Showers E 11/0 (13/0) 27(80) 81 1016 / 30.01
 08:45 Mostly Cloudy Showers E 12/0 (14/0) 27(81) 75 1016 / 30.01
 07:55 Mostly Cloudy Showers E 9/0 (10/0) 27(81) 72 1016 / 30.01
 06:55 Mostly Cloudy Showers E 11/0 (13/0) 27(80) 79 1016 / 29.99
 05:55 Few Clouds  ENE 10/0 (12/0) 27(80) 77 1015 / 29.98
 04:55 Partly Cloudy  E 9/0 (10/0) 26(80) 75 1016 / 29.99
 03:55 Partly Cloudy Showers E 11/0 (13/0) 26(79) 78 1016 / 30.01
 02:55 Few Clouds  E 10/0 (12/0) 27(80) 76 1017 / 30.03
 01:55 Few Clouds  E 9/0 (10/0) 27(80) 76 1017 / 30.04
 00:55 Partly Cloudy Showers E 9/0 (10/0) 27(80) 77 1018 / 30.05
 23:55 Few Clouds Showers ENE 10/0 (12/0) 27(81) 75 1018 / 30.07
 22:55 Few Clouds Showers ENE 10/0 (12/0) 27(81) 73 1018 / 30.06
 21:55 Few Clouds  ENE 10/0 (12/0) 27(81) 74 1018 / 30.07
 20:55 Few Clouds Showers ENE 10/0 (12/0) 27(81) 72 1018 / 30.07
 19:55 Few Clouds  ENE 10/0 (12/0) 27(81) 74 1018 / 30.07
 18:55 Few Clouds  ENE 9/0 (10/0) 28(82) 69 1018 / 30.06
Island AWOS